Time;durP1;ratioP1;P1;durP2;ratioP2;P2;SDS_P1;SDS_P2;PMS_P1;PMS_P2;Temp;Humidity;BMP_temperature;BMP_pressure;BME280_temperature;BME280_humidity;BME280_pressure;Samples;Min_cycle;Max_cycle;Signal;HPM_P1;HPM_P2
2023/12/16 00:02:19;;;;;;;11.40;4.47;;;;;;;;;;10287705;28;20030;-62
2023/12/16 00:07:20;;;;;;;13.77;4.38;;;;;;;;;;10283562;28;20101;-62
2023/12/16 00:12:20;;;;;;;8.43;4.72;;;;;;;;;;10287587;28;20031;-61
2023/12/16 00:17:23;;;;;;;11.07;4.93;;;;;;;;;;10288699;28;20029;-62
2023/12/16 00:22:25;;;;;;;10.20;4.13;;;;;;;;;;10288061;28;20617;-62
2023/12/16 00:27:25;;;;;;;6.82;4.13;;;;;;;;;;10287969;28;20078;-62
2023/12/16 00:32:26;;;;;;;8.20;4.13;;;;;;;;;;10287704;28;20063;-62
2023/12/16 00:37:27;;;;;;;17.48;4.13;;;;;;;;;;10287754;28;20027;-62
2023/12/16 00:42:27;;;;;;;11.02;4.53;;;;;;;;;;10288059;28;20014;-62
2023/12/16 00:47:28;;;;;;;9.38;4.15;;;;;;;;;;10286497;28;20186;-63
2023/12/16 00:52:29;;;;;;;8.10;4.07;;;;;;;;;;10286952;28;20030;-62
2023/12/16 00:57:29;;;;;;;6.43;4.22;;;;;;;;;;10287042;28;20034;-62
2023/12/16 01:02:30;;;;;;;13.82;5.03;;;;;;;;;;10287139;28;20039;-62
2023/12/16 01:07:31;;;;;;;10.65;4.20;;;;;;;;;;10284797;28;20031;-63
2023/12/16 01:12:31;;;;;;;11.10;4.13;;;;;;;;;;10286077;28;20093;-61
2023/12/16 01:17:32;;;;;;;7.25;3.97;;;;;;;;;;10285696;28;20031;-60
2023/12/16 01:22:33;;;;;;;5.75;3.83;;;;;;;;;;10286203;28;20050;-63
2023/12/16 01:27:33;;;;;;;8.05;4.30;;;;;;;;;;10286447;28;20030;-60
2023/12/16 01:32:34;;;;;;;7.78;4.07;;;;;;;;;;10286132;28;20086;-64
2023/12/16 01:37:34;;;;;;;5.38;3.25;;;;;;;;;;10286485;28;20267;-62
2023/12/16 01:42:35;;;;;;;6.07;3.72;;;;;;;;;;10286116;28;20027;-60
2023/12/16 01:47:37;;;;;;;5.60;3.88;;;;;;;;;;10286649;28;20031;-60
2023/12/16 01:52:37;;;;;;;7.13;3.75;;;;;;;;;;10284831;28;20045;-61
2023/12/16 01:57:39;;;;;;;8.90;3.38;;;;;;;;;;10289731;28;20023;-61
2023/12/16 02:02:40;;;;;;;11.60;3.45;;;;;;;;;;10276316;28;20027;-62
2023/12/16 02:07:43;;;;;;;5.95;3.80;;;;;;;;;;10293507;28;20027;-61
2023/12/16 02:12:44;;;;;;;7.03;3.50;;;;;;;;;;10293246;28;20434;-62
2023/12/16 02:17:44;;;;;;;5.80;3.42;;;;;;;;;;10292949;28;20326;-61
2023/12/16 02:22:47;;;;;;;4.47;3.70;;;;;;;;;;10292847;28;20049;-60
2023/12/16 02:27:47;;;;;;;6.75;3.35;;;;;;;;;;10292957;28;20117;-60
2023/12/16 02:32:48;;;;;;;5.75;3.65;;;;;;;;;;10293264;28;20474;-64
2023/12/16 02:37:48;;;;;;;6.20;3.40;;;;;;;;;;10292751;28;20031;-63
2023/12/16 02:42:49;;;;;;;7.85;2.95;;;;;;;;;;10292694;28;20031;-64
2023/12/16 02:47:49;;;;;;;6.07;3.38;;;;;;;;;;10292009;28;20213;-63
2023/12/16 02:52:50;;;;;;;4.32;3.05;;;;;;;;;;10292259;28;20042;-63
2023/12/16 02:57:51;;;;;;;5.28;3.25;;;;;;;;;;10291208;28;20390;-63
2023/12/16 03:02:51;;;;;;;6.85;3.03;;;;;;;;;;10291094;28;20026;-61
2023/12/16 03:07:52;;;;;;;5.97;3.28;;;;;;;;;;10289742;28;20386;-63
2023/12/16 03:12:52;;;;;;;6.38;2.90;;;;;;;;;;10290844;28;20372;-63
2023/12/16 03:17:53;;;;;;;4.53;3.10;;;;;;;;;;10290491;28;20430;-62
2023/12/16 03:22:53;;;;;;;5.35;2.60;;;;;;;;;;10290468;28;20499;-62
2023/12/16 03:27:54;;;;;;;4.75;3.35;;;;;;;;;;10289586;28;20034;-60
2023/12/16 03:32:55;;;;;;;5.07;2.83;;;;;;;;;;10290750;28;20045;-60
2023/12/16 03:37:56;;;;;;;3.95;2.97;;;;;;;;;;10289586;28;20459;-62
2023/12/16 03:42:58;;;;;;;4.85;3.20;;;;;;;;;;10289958;28;20039;-60
2023/12/16 03:47:59;;;;;;;4.97;2.75;;;;;;;;;;10289890;28;20027;-60
2023/12/16 03:52:59;;;;;;;2.90;2.63;;;;;;;;;;10285454;28;20031;-60
2023/12/16 03:58:00;;;;;;;3.63;2.90;;;;;;;;;;10288998;28;20030;-62
2023/12/16 04:03:01;;;;;;;4.07;3.10;;;;;;;;;;10288594;28;20035;-60
2023/12/16 04:08:03;;;;;;;4.28;3.05;;;;;;;;;;10289174;28;20038;-60
2023/12/16 04:13:03;;;;;;;3.55;2.40;;;;;;;;;;10288125;28;20069;-61
2023/12/16 04:18:04;;;;;;;3.63;2.53;;;;;;;;;;10288091;28;20114;-60
2023/12/16 04:23:04;;;;;;;3.80;2.53;;;;;;;;;;10287921;28;20046;-60
2023/12/16 04:28:05;;;;;;;2.55;2.35;;;;;;;;;;10287960;28;20027;-60
2023/12/16 04:33:05;;;;;;;6.10;2.70;;;;;;;;;;10287881;28;20093;-62
2023/12/16 04:38:06;;;;;;;4.38;2.72;;;;;;;;;;10287790;28;20026;-62
2023/12/16 04:43:07;;;;;;;4.55;2.95;;;;;;;;;;10287699;28;20022;-62
2023/12/16 04:48:07;;;;;;;2.50;2.30;;;;;;;;;;10287937;28;20039;-61
2023/12/16 04:53:08;;;;;;;2.60;2.38;;;;;;;;;;10287771;28;20035;-64
2023/12/16 04:58:08;;;;;;;3.30;2.70;;;;;;;;;;10287058;28;20088;-63
2023/12/16 05:03:09;;;;;;;3.58;2.58;;;;;;;;;;10287667;28;20031;-62
2023/12/16 05:08:11;;;;;;;2.70;2.45;;;;;;;;;;10287068;28;20274;-62
2023/12/16 05:13:11;;;;;;;3.08;2.35;;;;;;;;;;10286703;28;20109;-62
2023/12/16 05:18:12;;;;;;;5.85;2.92;;;;;;;;;;10286987;28;20082;-61
2023/12/16 05:23:14;;;;;;;4.97;2.70;;;;;;;;;;10286740;28;20617;-63
2023/12/16 05:28:14;;;;;;;4.15;2.38;;;;;;;;;;10286449;28;20035;-63
2023/12/16 05:33:15;;;;;;;3.65;2.70;;;;;;;;;;10291543;28;20085;-63
2023/12/16 05:38:15;;;;;;;2.60;2.33;;;;;;;;;;10294547;28;20035;-63
2023/12/16 05:43:16;;;;;;;3.47;2.42;;;;;;;;;;10294145;28;20027;-63
2023/12/16 05:48:16;;;;;;;7.20;2.45;;;;;;;;;;10293935;28;20034;-63
2023/12/16 05:53:17;;;;;;;6.38;2.45;;;;;;;;;;10294893;28;20034;-62
2023/12/16 05:58:18;;;;;;;3.17;2.70;;;;;;;;;;10294313;28;20023;-63
2023/12/16 06:03:18;;;;;;;5.60;2.38;;;;;;;;;;10293716;28;20046;-63
2023/12/16 06:08:19;;;;;;;3.28;2.17;;;;;;;;;;10293290;28;20031;-62
2023/12/16 06:13:19;;;;;;;6.80;2.65;;;;;;;;;;10292934;28;20038;-61
2023/12/16 06:18:20;;;;;;;3.08;2.13;;;;;;;;;;10293317;28;20211;-62
2023/12/16 06:23:20;;;;;;;3.63;2.28;;;;;;;;;;10292936;28;20109;-63
2023/12/16 06:28:21;;;;;;;2.17;1.98;;;;;;;;;;10292833;28;20030;-62
2023/12/16 06:33:22;;;;;;;8.65;2.35;;;;;;;;;;10292266;28;20030;-62
2023/12/16 06:38:22;;;;;;;10.90;2.47;;;;;;;;;;10292810;28;20039;-62
2023/12/16 06:43:23;;;;;;;2.63;2.20;;;;;;;;;;10290731;28;20030;-62
2023/12/16 06:48:24;;;;;;;3.58;2.42;;;;;;;;;;10292100;28;20035;-62
2023/12/16 06:53:24;;;;;;;2.95;2.22;;;;;;;;;;10292218;28;20119;-62
2023/12/16 06:58:25;;;;;;;2.55;2.20;;;;;;;;;;10291582;28;20054;-62
2023/12/16 07:03:28;;;;;;;2.67;1.90;;;;;;;;;;10291139;28;20023;-63
2023/12/16 07:08:30;;;;;;;2.58;2.25;;;;;;;;;;10291442;28;20050;-62
2023/12/16 07:13:30;;;;;;;2.63;2.17;;;;;;;;;;10291495;28;20030;-62
2023/12/16 07:18:31;;;;;;;2.20;2.00;;;;;;;;;;10290797;28;20035;-61
2023/12/16 07:23:33;;;;;;;2.25;1.92;;;;;;;;;;10291290;28;20035;-61
2023/12/16 07:28:34;;;;;;;3.42;2.00;;;;;;;;;;10290988;28;20146;-62
2023/12/16 07:33:37;;;;;;;12.02;2.65;;;;;;;;;;10290640;28;20139;-62
2023/12/16 07:38:37;;;;;;;3.17;2.10;;;;;;;;;;10290431;28;20042;-62
2023/12/16 07:43:39;;;;;;;3.60;2.05;;;;;;;;;;10290381;28;20037;-62
2023/12/16 07:48:40;;;;;;;2.38;1.90;;;;;;;;;;10289598;28;20027;-63
2023/12/16 07:53:43;;;;;;;2.30;1.90;;;;;;;;;;10289617;28;20573;-63
2023/12/16 07:58:44;;;;;;;3.78;2.10;;;;;;;;;;10289581;28;20037;-61
2023/12/16 08:03:46;;;;;;;3.10;2.35;;;;;;;;;;10287634;28;20447;-63
2023/12/16 08:08:46;;;;;;;6.72;2.20;;;;;;;;;;10283116;28;20018;-62
2023/12/16 08:13:47;;;;;;;2.72;2.30;;;;;;;;;;10286178;28;20093;-62
2023/12/16 08:18:47;;;;;;;2.63;2.10;;;;;;;;;;10287232;28;20022;-62
2023/12/16 08:23:48;;;;;;;3.70;2.30;;;;;;;;;;10287490;28;20375;-62
2023/12/16 08:28:50;;;;;;;3.17;2.20;;;;;;;;;;10283281;28;20034;-62
2023/12/16 08:33:50;;;;;;;1.88;1.77;;;;;;;;;;10273858;28;20117;-62
2023/12/16 08:38:51;;;;;;;4.75;2.15;;;;;;;;;;10256378;28;20034;-61
2023/12/16 08:43:51;;;;;;;2.70;2.00;;;;;;;;;;10279280;28;20026;-61
2023/12/16 08:48:54;;;;;;;6.97;2.17;;;;;;;;;;10273311;28;20027;-61
2023/12/16 08:53:54;;;;;;;2.78;1.90;;;;;;;;;;10272034;28;20046;-61
2023/12/16 08:58:55;;;;;;;2.22;2.00;;;;;;;;;;10272504;28;20030;-61
2023/12/16 09:03:56;;;;;;;3.90;2.15;;;;;;;;;;10271088;28;20388;-61
2023/12/16 09:09:01;;;;;;;2.42;2.08;;;;;;;;;;10270120;28;20171;-61
2023/12/16 09:14:04;;;;;;;2.13;1.92;;;;;;;;;;10274298;28;20045;-61
2023/12/16 09:19:07;;;;;;;3.63;1.85;;;;;;;;;;10270953;28;20195;-63
2023/12/16 09:24:07;;;;;;;2.58;2.10;;;;;;;;;;10282972;28;20462;-63
2023/12/16 09:29:09;;;;;;;7.00;2.30;;;;;;;;;;10249470;28;20168;-61
2023/12/16 09:34:10;;;;;;;4.78;1.90;;;;;;;;;;10261421;28;20118;-60
2023/12/16 09:39:11;;;;;;;2.47;2.00;;;;;;;;;;10271976;28;20455;-62
2023/12/16 09:44:19;;;;;;;2.40;1.90;;;;;;;;;;10269703;28;20386;-61
2023/12/16 09:49:21;;;;;;;8.18;2.10;;;;;;;;;;10269487;28;20360;-63
2023/12/16 09:54:21;;;;;;;4.82;2.22;;;;;;;;;;10257360;28;20046;-62
2023/12/16 09:59:25;;;;;;;4.97;2.25;;;;;;;;;;10283823;28;20030;-63
2023/12/16 10:04:26;;;;;;;2.75;1.90;;;;;;;;;;10274811;28;20035;-62
2023/12/16 10:09:27;;;;;;;4.75;2.80;;;;;;;;;;10264026;28;20263;-59
2023/12/16 10:14:46;;;;;;;5.05;3.45;;;;;;;;;;10279573;28;20054;-59
2023/12/16 10:19:50;;;;;;;4.97;3.30;;;;;;;;;;10286389;28;20043;-59
2023/12/16 10:24:51;;;;;;;9.48;3.40;;;;;;;;;;10283162;28;20035;-60
2023/12/16 10:29:52;;;;;;;4.70;3.60;;;;;;;;;;10270668;28;20473;-59
2023/12/16 10:34:53;;;;;;;9.15;3.55;;;;;;;;;;10291310;28;20434;-60
2023/12/16 10:39:53;;;;;;;4.55;3.58;;;;;;;;;;10290531;28;20383;-60
2023/12/16 10:44:54;;;;;;;3.67;2.63;;;;;;;;;;10287495;28;20040;-60
2023/12/16 10:49:59;;;;;;;12.70;3.55;;;;;;;;;;10291309;28;20035;-59
2023/12/16 10:55:02;;;;;;;6.28;3.17;;;;;;;;;;10271456;28;20038;-59
2023/12/16 11:00:07;;;;;;;7.68;3.15;;;;;;;;;;10286161;28;20474;-61
2023/12/16 11:05:41;;;;;;;8.13;3.33;;;;;;;;;;10268836;28;20031;-60
2023/12/16 11:10:41;;;;;;;2.85;2.58;;;;;;;;;;10273816;28;20081;-61
2023/12/16 11:15:43;;;;;;;3.58;2.42;;;;;;;;;;10288007;28;20027;-60
2023/12/16 11:20:49;;;;;;;9.55;2.80;;;;;;;;;;10282900;28;20507;-63
2023/12/16 11:25:50;;;;;;;7.45;3.33;;;;;;;;;;10270549;28;20050;-61
2023/12/16 11:30:56;;;;;;;4.43;3.10;;;;;;;;;;10276141;28;20038;-61
2023/12/16 11:35:56;;;;;;;6.05;3.08;;;;;;;;;;10284149;28;20497;-60
2023/12/16 11:40:58;;;;;;;5.72;3.22;;;;;;;;;;10283686;28;20042;-60
2023/12/16 11:45:59;;;;;;;4.22;2.78;;;;;;;;;;10284450;28;20031;-60
2023/12/16 11:51:00;;;;;;;5.45;2.58;;;;;;;;;;10285767;28;20038;-60
2023/12/16 11:56:00;;;;;;;4.65;2.90;;;;;;;;;;10269605;28;20466;-62
2023/12/16 12:01:01;;;;;;;9.13;3.20;;;;;;;;;;10283087;28;20050;-59
2023/12/16 12:06:03;;;;;;;4.20;2.88;;;;;;;;;;10288627;28;20042;-60
2023/12/16 12:11:06;;;;;;;5.97;3.10;;;;;;;;;;10284846;28;20041;-60
2023/12/16 12:16:07;;;;;;;3.60;2.50;;;;;;;;;;10286984;28;20027;-60
2023/12/16 12:21:09;;;;;;;6.57;2.47;;;;;;;;;;10281907;28;20051;-60
2023/12/16 12:26:10;;;;;;;4.72;3.00;;;;;;;;;;10271663;28;20022;-61
2023/12/16 12:31:13;;;;;;;5.63;2.70;;;;;;;;;;10287524;28;20035;-60
2023/12/16 12:36:13;;;;;;;3.97;2.80;;;;;;;;;;10279475;28;20026;-61
2023/12/16 12:41:15;;;;;;;7.72;2.95;;;;;;;;;;10255595;28;20505;-62
2023/12/16 12:46:19;;;;;;;7.53;2.63;;;;;;;;;;10284977;28;20039;-60
2023/12/16 12:51:19;;;;;;;4.55;2.72;;;;;;;;;;10280391;28;20045;-61
2023/12/16 12:56:20;;;;;;;6.00;2.83;;;;;;;;;;10271567;28;20035;-61
2023/12/16 13:01:20;;;;;;;4.20;2.88;;;;;;;;;;10270357;28;20470;-60
2023/12/16 13:06:21;;;;;;;3.53;2.80;;;;;;;;;;10271518;28;20475;-59
2023/12/16 13:11:22;;;;;;;10.90;3.10;;;;;;;;;;10264124;28;20465;-60
2023/12/16 13:16:24;;;;;;;4.30;2.88;;;;;;;;;;10278267;28;20089;-60
2023/12/16 13:21:25;;;;;;;3.95;2.80;;;;;;;;;;10285101;28;20050;-61
2023/12/16 13:26:26;;;;;;;4.38;2.60;;;;;;;;;;10278714;28;20110;-61
2023/12/16 13:31:28;;;;;;;5.78;2.97;;;;;;;;;;10274891;28;20077;-61
2023/12/16 13:36:29;;;;;;;4.80;2.38;;;;;;;;;;10274887;28;20114;-62
2023/12/16 13:41:30;;;;;;;3.45;2.50;;;;;;;;;;10260888;28;20054;-61
2023/12/16 13:46:32;;;;;;;7.32;2.83;;;;;;;;;;10266174;28;20282;-60
2023/12/16 13:51:33;;;;;;;6.35;2.55;;;;;;;;;;10274896;28;20034;-60
2023/12/16 13:56:34;;;;;;;6.57;2.97;;;;;;;;;;10278179;28;20031;-59
2023/12/16 14:01:36;;;;;;;3.22;2.45;;;;;;;;;;10269915;28;20471;-60
2023/12/16 14:06:39;;;;;;;3.80;2.75;;;;;;;;;;10286925;28;20030;-60
2023/12/16 14:11:41;;;;;;;3.55;2.70;;;;;;;;;;10293087;28;20538;-60
2023/12/16 14:16:42;;;;;;;5.30;2.63;;;;;;;;;;10282112;28;20227;-60
2023/12/16 14:21:44;;;;;;;4.68;2.55;;;;;;;;;;10286345;28;20046;-60
2023/12/16 14:26:45;;;;;;;3.70;2.53;;;;;;;;;;10291444;28;20511;-61
2023/12/16 14:31:48;;;;;;;7.50;2.33;;;;;;;;;;10291252;28;20034;-61
2023/12/16 14:36:49;;;;;;;3.75;2.22;;;;;;;;;;10283811;28;20178;-59
2023/12/16 14:41:50;;;;;;;3.08;2.28;;;;;;;;;;10275837;28;20034;-61
2023/12/16 14:46:53;;;;;;;5.72;2.47;;;;;;;;;;10272799;28;20023;-60
2023/12/16 14:51:54;;;;;;;3.65;2.42;;;;;;;;;;10274096;28;20026;-61
2023/12/16 14:56:54;;;;;;;4.75;2.45;;;;;;;;;;10280166;28;20054;-60
2023/12/16 15:01:55;;;;;;;4.15;2.40;;;;;;;;;;10275326;28;20030;-60
2023/12/16 15:06:58;;;;;;;5.82;2.40;;;;;;;;;;10273855;28;20027;-61
2023/12/16 15:11:58;;;;;;;3.38;2.28;;;;;;;;;;10273553;28;20031;-61
2023/12/16 15:16:59;;;;;;;3.03;2.03;;;;;;;;;;10274599;28;20031;-60
2023/12/16 15:21:59;;;;;;;4.63;2.80;;;;;;;;;;10273759;28;20049;-60
2023/12/16 15:27:00;;;;;;;3.08;2.10;;;;;;;;;;10273175;28;20199;-60
2023/12/16 15:32:01;;;;;;;4.53;2.08;;;;;;;;;;10231684;28;20041;-61
2023/12/16 15:37:02;;;;;;;3.83;2.47;;;;;;;;;;10278568;28;20081;-60
2023/12/16 15:42:04;;;;;;;2.80;1.85;;;;;;;;;;10283122;28;20382;-60
2023/12/16 15:47:04;;;;;;;4.45;2.80;;;;;;;;;;10281062;28;20030;-60
2023/12/16 15:52:05;;;;;;;5.50;2.40;;;;;;;;;;10285011;28;20081;-60
2023/12/16 15:57:06;;;;;;;4.45;2.28;;;;;;;;;;10283898;28;20513;-60
2023/12/16 16:02:06;;;;;;;2.50;2.08;;;;;;;;;;10278576;28;20077;-60
2023/12/16 16:07:07;;;;;;;7.22;2.60;;;;;;;;;;10284197;28;20031;-61
2023/12/16 16:12:08;;;;;;;8.27;3.08;;;;;;;;;;10283721;28;20031;-60
2023/12/16 16:17:09;;;;;;;5.35;2.65;;;;;;;;;;10277436;28;20031;-61
2023/12/16 16:22:17;;;;;;;4.40;2.53;;;;;;;;;;10284770;28;20050;-60
2023/12/16 16:27:18;;;;;;;5.55;2.50;;;;;;;;;;10285583;28;20050;-61
2023/12/16 16:32:19;;;;;;;4.05;2.67;;;;;;;;;;10282046;28;20407;-60
2023/12/16 16:37:19;;;;;;;5.70;2.63;;;;;;;;;;10280952;28;20027;-61
2023/12/16 16:42:20;;;;;;;10.25;3.17;;;;;;;;;;10284209;28;20041;-61
2023/12/16 16:47:21;;;;;;;4.38;3.05;;;;;;;;;;10283763;28;20065;-61
2023/12/16 16:52:21;;;;;;;3.70;2.42;;;;;;;;;;10282663;28;20065;-61
2023/12/16 16:57:24;;;;;;;4.00;2.55;;;;;;;;;;10281146;28;20033;-61
2023/12/16 17:02:25;;;;;;;3.92;2.60;;;;;;;;;;10276719;28;20494;-61
2023/12/16 17:07:25;;;;;;;4.10;3.50;;;;;;;;;;10280114;28;20039;-61
2023/12/16 17:12:26;;;;;;;4.65;2.83;;;;;;;;;;10277081;28;20035;-60
2023/12/16 17:17:27;;;;;;;7.38;2.80;;;;;;;;;;10285518;28;20034;-60
2023/12/16 17:22:27;;;;;;;5.65;2.75;;;;;;;;;;10259556;28;20138;-61
2023/12/16 17:27:28;;;;;;;14.35;2.85;;;;;;;;;;10280719;28;20077;-62
2023/12/16 17:32:29;;;;;;;10.52;3.20;;;;;;;;;;10284304;28;20038;-62
2023/12/16 17:37:30;;;;;;;3.22;2.60;;;;;;;;;;10282092;28;20031;-62
2023/12/16 17:42:30;;;;;;;6.55;2.90;;;;;;;;;;10284014;28;20108;-62
2023/12/16 17:47:32;;;;;;;5.65;3.28;;;;;;;;;;10282018;28;20022;-62
2023/12/16 17:52:32;;;;;;;6.35;2.92;;;;;;;;;;10280788;28;20410;-61
2023/12/16 17:57:33;;;;;;;5.70;3.08;;;;;;;;;;10278484;28;20030;-62
2023/12/16 18:02:33;;;;;;;7.53;2.97;;;;;;;;;;10283792;28;20035;-61
2023/12/16 18:07:34;;;;;;;4.20;3.50;;;;;;;;;;10284566;28;20026;-61
2023/12/16 18:12:35;;;;;;;5.50;3.50;;;;;;;;;;10282663;28;20027;-60
2023/12/16 18:17:35;;;;;;;5.43;3.47;;;;;;;;;;10269176;28;20157;-60
2023/12/16 18:22:36;;;;;;;7.43;3.38;;;;;;;;;;10283496;28;20054;-60
2023/12/16 18:27:37;;;;;;;3.95;3.10;;;;;;;;;;10275533;28;20027;-60
2023/12/16 18:32:38;;;;;;;9.50;3.85;;;;;;;;;;10282456;28;20479;-60
2023/12/16 18:37:42;;;;;;;5.03;3.30;;;;;;;;;;10284562;28;20620;-60
2023/12/16 18:42:43;;;;;;;7.72;3.50;;;;;;;;;;10287670;28;20110;-60
2023/12/16 18:47:43;;;;;;;5.10;3.67;;;;;;;;;;10287580;28;20026;-60
2023/12/16 18:52:44;;;;;;;6.28;4.30;;;;;;;;;;10287993;28;20096;-60
2023/12/16 18:57:44;;;;;;;5.57;3.30;;;;;;;;;;10289250;28;20034;-60
2023/12/16 19:02:45;;;;;;;5.22;3.70;;;;;;;;;;10287221;28;20085;-60
2023/12/16 19:07:46;;;;;;;4.50;3.20;;;;;;;;;;10280561;28;20027;-60
2023/12/16 19:12:46;;;;;;;5.22;3.47;;;;;;;;;;10277416;28;20026;-60
2023/12/16 19:17:47;;;;;;;5.00;3.97;;;;;;;;;;10288802;28;20105;-60
2023/12/16 19:22:49;;;;;;;6.47;4.03;;;;;;;;;;10279166;28;20491;-60
2023/12/16 19:27:50;;;;;;;6.20;3.70;;;;;;;;;;10281857;28;20535;-61
2023/12/16 19:32:50;;;;;;;8.60;4.15;;;;;;;;;;10279000;28;20031;-62
2023/12/16 19:37:51;;;;;;;5.25;3.90;;;;;;;;;;10285383;28;20533;-61
2023/12/16 19:42:52;;;;;;;6.70;4.32;;;;;;;;;;10280593;28;20395;-61
2023/12/16 19:47:52;;;;;;;5.65;4.25;;;;;;;;;;10289098;28;20105;-61
2023/12/16 19:52:53;;;;;;;9.10;4.30;;;;;;;;;;10275890;28;20031;-61
2023/12/16 19:57:54;;;;;;;7.68;4.30;;;;;;;;;;10273226;28;20387;-62
2023/12/16 20:02:55;;;;;;;7.13;4.10;;;;;;;;;;10272979;28;20066;-61
2023/12/16 20:07:55;;;;;;;5.07;4.10;;;;;;;;;;10273138;28;20571;-61
2023/12/16 20:12:56;;;;;;;6.85;4.22;;;;;;;;;;10273240;28;20418;-61
2023/12/16 20:17:57;;;;;;;5.65;3.80;;;;;;;;;;10271990;28;20078;-61
2023/12/16 20:22:58;;;;;;;5.85;4.18;;;;;;;;;;10271595;28;20630;-61
2023/12/16 20:27:59;;;;;;;7.28;4.20;;;;;;;;;;10271566;28;20030;-60
2023/12/16 20:33:00;;;;;;;5.78;3.55;;;;;;;;;;10271628;28;20429;-61
2023/12/16 20:38:03;;;;;;;6.32;4.13;;;;;;;;;;10284572;28;20368;-61
2023/12/16 20:43:04;;;;;;;6.03;4.22;;;;;;;;;;10274303;28;20486;-61
2023/12/16 20:48:05;;;;;;;12.93;5.10;;;;;;;;;;10284647;28;20073;-62
2023/12/16 20:53:05;;;;;;;18.20;4.57;;;;;;;;;;10281444;28;20386;-62
2023/12/16 20:58:06;;;;;;;13.90;4.05;;;;;;;;;;10285966;28;20031;-61
2023/12/16 21:03:07;;;;;;;11.30;4.30;;;;;;;;;;10278849;28;20019;-62
2023/12/16 21:08:08;;;;;;;16.92;5.20;;;;;;;;;;10285927;28;20030;-61
2023/12/16 21:13:10;;;;;;;7.13;3.95;;;;;;;;;;10285040;28;20086;-61
2023/12/16 21:18:10;;;;;;;8.15;4.43;;;;;;;;;;10287091;28;20058;-61
2023/12/16 21:23:11;;;;;;;9.10;4.40;;;;;;;;;;10279307;28;20043;-61
2023/12/16 21:28:13;;;;;;;9.75;4.15;;;;;;;;;;10269594;28;20050;-60
2023/12/16 21:33:20;;;;;;;10.20;4.90;;;;;;;;;;10270088;28;20300;-60
2023/12/16 21:38:21;;;;;;;7.05;4.22;;;;;;;;;;10281987;23;20061;-61
2023/12/16 21:43:25;;;;;;;8.85;4.18;;;;;;;;;;10285193;28;20050;-61
2023/12/16 21:48:25;;;;;;;8.57;4.38;;;;;;;;;;10285148;28;20031;-61
2023/12/16 21:53:26;;;;;;;13.15;4.22;;;;;;;;;;10266753;28;20039;-61
2023/12/16 21:58:27;;;;;;;5.30;3.83;;;;;;;;;;10285282;28;20027;-62
2023/12/16 22:03:27;;;;;;;8.48;4.47;;;;;;;;;;10279789;28;20073;-61
2023/12/16 22:08:28;;;;;;;12.20;4.20;;;;;;;;;;10284462;28;20033;-63
2023/12/16 22:13:28;;;;;;;14.68;4.15;;;;;;;;;;10285438;28;20053;-62
2023/12/16 22:18:29;;;;;;;10.63;5.00;;;;;;;;;;10293351;28;20458;-63
2023/12/16 22:23:30;;;;;;;10.45;5.20;;;;;;;;;;10292781;28;20440;-62
2023/12/16 22:28:30;;;;;;;10.60;5.30;;;;;;;;;;10292827;28;20545;-63
2023/12/16 22:33:31;;;;;;;8.82;5.32;;;;;;;;;;10292782;28;20027;-63
2023/12/16 22:38:31;;;;;;;9.40;5.47;;;;;;;;;;10288616;28;20039;-63
2023/12/16 22:43:32;;;;;;;10.98;5.65;;;;;;;;;;10292271;28;20039;-63
2023/12/16 22:48:33;;;;;;;21.50;6.30;;;;;;;;;;10291994;28;20102;-63
2023/12/16 22:53:33;;;;;;;10.05;5.60;;;;;;;;;;10292032;28;20035;-63
2023/12/16 22:58:34;;;;;;;8.73;5.35;;;;;;;;;;10290705;28;20478;-63
2023/12/16 23:03:34;;;;;;;11.32;5.75;;;;;;;;;;10286960;28;20485;-64
2023/12/16 23:08:37;;;;;;;8.40;5.50;;;;;;;;;;10290177;28;20621;-63
2023/12/16 23:13:38;;;;;;;14.82;5.90;;;;;;;;;;10291230;28;20113;-66
2023/12/16 23:18:39;;;;;;;15.73;5.60;;;;;;;;;;10284974;28;20019;-65
2023/12/16 23:23:44;;;;;;;13.07;5.50;;;;;;;;;;10291176;28;20375;-64
2023/12/16 23:28:45;;;;;;;13.23;5.13;;;;;;;;;;10272817;28;20029;-64
2023/12/16 23:33:46;;;;;;;12.18;5.25;;;;;;;;;;10290549;28;20459;-64
2023/12/16 23:38:47;;;;;;;17.77;5.07;;;;;;;;;;10284761;28;20622;-64
2023/12/16 23:43:49;;;;;;;11.85;5.97;;;;;;;;;;10258136;28;20031;-64
2023/12/16 23:48:49;;;;;;;13.88;5.18;;;;;;;;;;10278043;28;20411;-63
2023/12/16 23:53:56;;;;;;;11.18;5.38;;;;;;;;;;10274495;28;20361;-63
2023/12/16 23:58:57;;;;;;;8.57;5.18;;;;;;;;;;10274649;28;20042;-64
